sensor_id;sensor_type;location;lat;lon;timestamp;P1;durP1;ratioP1;P2;durP2;ratioP2
79399;SDS011;68856;45.586;10.264;2023-05-29T00:01:00;10.23;;;6.63;;
79399;SDS011;68856;45.586;10.264;2023-05-29T00:03:26;8.70;;;6.63;;
79399;SDS011;68856;45.586;10.264;2023-05-29T00:05:52;10.05;;;7.03;;
79399;SDS011;68856;45.586;10.264;2023-05-29T00:08:18;9.02;;;7.13;;
79399;SDS011;68856;45.586;10.264;2023-05-29T00:10:44;9.82;;;7.32;;
79399;SDS011;68856;45.586;10.264;2023-05-29T00:13:10;8.10;;;6.95;;
79399;SDS011;68856;45.586;10.264;2023-05-29T00:15:36;11.13;;;6.40;;
79399;SDS011;68856;45.586;10.264;2023-05-29T00:18:02;8.63;;;6.43;;
79399;SDS011;68856;45.586;10.264;2023-05-29T00:20:28;9.73;;;7.55;;
79399;SDS011;68856;45.586;10.264;2023-05-29T00:22:54;7.78;;;6.25;;
79399;SDS011;68856;45.586;10.264;2023-05-29T00:25:20;12.25;;;6.97;;
79399;SDS011;68856;45.586;10.264;2023-05-29T00:27:46;7.60;;;6.05;;
79399;SDS011;68856;45.586;10.264;2023-05-29T00:30:13;10.95;;;6.70;;
79399;SDS011;68856;45.586;10.264;2023-05-29T00:32:39;8.57;;;6.50;;
79399;SDS011;68856;45.586;10.264;2023-05-29T00:35:05;8.40;;;6.55;;
79399;SDS011;68856;45.586;10.264;2023-05-29T00:37:32;8.45;;;6.07;;
79399;SDS011;68856;45.586;10.264;2023-05-29T00:39:58;8.40;;;6.28;;
79399;SDS011;68856;45.586;10.264;2023-05-29T00:42:24;8.57;;;6.00;;
79399;SDS011;68856;45.586;10.264;2023-05-29T00:44:50;9.70;;;6.97;;
79399;SDS011;68856;45.586;10.264;2023-05-29T00:47:16;8.18;;;6.32;;
79399;SDS011;68856;45.586;10.264;2023-05-29T00:49:42;9.90;;;7.97;;
79399;SDS011;68856;45.586;10.264;2023-05-29T00:52:08;8.57;;;6.43;;
79399;SDS011;68856;45.586;10.264;2023-05-29T00:54:35;8.10;;;6.32;;
79399;SDS011;68856;45.586;10.264;2023-05-29T00:57:02;9.88;;;6.45;;
79399;SDS011;68856;45.586;10.264;2023-05-29T00:59:29;12.45;;;6.30;;
79399;SDS011;68856;45.586;10.264;2023-05-29T01:01:55;9.32;;;6.63;;
79399;SDS011;68856;45.586;10.264;2023-05-29T01:04:23;8.43;;;6.18;;
79399;SDS011;68856;45.586;10.264;2023-05-29T01:06:50;7.03;;;6.10;;
79399;SDS011;68856;45.586;10.264;2023-05-29T01:09:16;8.80;;;6.22;;
79399;SDS011;68856;45.586;10.264;2023-05-29T01:14:25;7.95;;;6.35;;
79399;SDS011;68856;45.586;10.264;2023-05-29T01:17:42;8.82;;;6.57;;
79399;SDS011;68856;45.586;10.264;2023-05-29T01:20:07;7.32;;;6.57;;
79399;SDS011;68856;45.586;10.264;2023-05-29T01:25:11;10.90;;;6.50;;
79399;SDS011;68856;45.586;10.264;2023-05-29T01:27:43;7.88;;;6.43;;
79399;SDS011;68856;45.586;10.264;2023-05-29T01:30:12;8.32;;;6.55;;
79399;SDS011;68856;45.586;10.264;2023-05-29T01:32:40;7.50;;;6.20;;
79399;SDS011;68856;45.586;10.264;2023-05-29T01:35:07;9.13;;;6.65;;
79399;SDS011;68856;45.586;10.264;2023-05-29T01:37:33;8.43;;;6.57;;
79399;SDS011;68856;45.586;10.264;2023-05-29T01:39:59;10.27;;;6.63;;
79399;SDS011;68856;45.586;10.264;2023-05-29T01:42:26;9.10;;;6.00;;
79399;SDS011;68856;45.586;10.264;2023-05-29T01:44:53;9.30;;;6.80;;
79399;SDS011;68856;45.586;10.264;2023-05-29T01:47:19;9.00;;;6.25;;
79399;SDS011;68856;45.586;10.264;2023-05-29T01:49:46;7.78;;;5.47;;
79399;SDS011;68856;45.586;10.264;2023-05-29T01:52:13;7.70;;;6.85;;
79399;SDS011;68856;45.586;10.264;2023-05-29T01:54:39;10.02;;;6.55;;
79399;SDS011;68856;45.586;10.264;2023-05-29T01:57:05;7.65;;;6.45;;
79399;SDS011;68856;45.586;10.264;2023-05-29T01:59:32;10.18;;;6.75;;
79399;SDS011;68856;45.586;10.264;2023-05-29T02:02:04;9.48;;;6.32;;
79399;SDS011;68856;45.586;10.264;2023-05-29T02:04:31;7.65;;;6.18;;
79399;SDS011;68856;45.586;10.264;2023-05-29T02:06:57;8.02;;;6.32;;
79399;SDS011;68856;45.586;10.264;2023-05-29T02:09:23;7.53;;;6.30;;
79399;SDS011;68856;45.586;10.264;2023-05-29T02:11:50;9.90;;;6.07;;
79399;SDS011;68856;45.586;10.264;2023-05-29T02:14:16;7.75;;;6.38;;
79399;SDS011;68856;45.586;10.264;2023-05-29T02:16:42;8.68;;;5.78;;
79399;SDS011;68856;45.586;10.264;2023-05-29T02:19:10;8.75;;;5.88;;
79399;SDS011;68856;45.586;10.264;2023-05-29T02:21:37;9.75;;;6.40;;
79399;SDS011;68856;45.586;10.264;2023-05-29T02:24:05;10.43;;;5.97;;
79399;SDS011;68856;45.586;10.264;2023-05-29T02:26:32;7.32;;;6.20;;
79399;SDS011;68856;45.586;10.264;2023-05-29T02:28:58;7.15;;;5.85;;
79399;SDS011;68856;45.586;10.264;2023-05-29T02:31:24;8.63;;;5.97;;
79399;SDS011;68856;45.586;10.264;2023-05-29T02:33:50;8.25;;;6.20;;
79399;SDS011;68856;45.586;10.264;2023-05-29T02:36:16;8.30;;;6.50;;
79399;SDS011;68856;45.586;10.264;2023-05-29T02:38:43;8.43;;;5.85;;
79399;SDS011;68856;45.586;10.264;2023-05-29T02:41:09;9.52;;;6.50;;
79399;SDS011;68856;45.586;10.264;2023-05-29T02:43:35;7.47;;;5.72;;
79399;SDS011;68856;45.586;10.264;2023-05-29T02:46:01;9.10;;;6.30;;
79399;SDS011;68856;45.586;10.264;2023-05-29T02:48:27;8.10;;;6.40;;
79399;SDS011;68856;45.586;10.264;2023-05-29T02:50:54;10.68;;;6.47;;
79399;SDS011;68856;45.586;10.264;2023-05-29T02:53:20;9.82;;;6.40;;
79399;SDS011;68856;45.586;10.264;2023-05-29T02:55:46;8.60;;;5.78;;
79399;SDS011;68856;45.586;10.264;2023-05-29T02:58:13;8.93;;;6.57;;
79399;SDS011;68856;45.586;10.264;2023-05-29T03:00:41;6.72;;;5.85;;
79399;SDS011;68856;45.586;10.264;2023-05-29T03:03:07;8.50;;;6.15;;
79399;SDS011;68856;45.586;10.264;2023-05-29T03:05:33;6.65;;;5.95;;
79399;SDS011;68856;45.586;10.264;2023-05-29T03:08:00;9.18;;;5.78;;
79399;SDS011;68856;45.586;10.264;2023-05-29T03:10:26;12.90;;;6.32;;
79399;SDS011;68856;45.586;10.264;2023-05-29T03:12:52;9.00;;;5.93;;
79399;SDS011;68856;45.586;10.264;2023-05-29T03:15:19;9.35;;;6.00;;
79399;SDS011;68856;45.586;10.264;2023-05-29T03:17:45;8.60;;;6.13;;
79399;SDS011;68856;45.586;10.264;2023-05-29T03:20:12;10.65;;;5.63;;
79399;SDS011;68856;45.586;10.264;2023-05-29T03:22:41;10.95;;;6.75;;
79399;SDS011;68856;45.586;10.264;2023-05-29T03:25:07;8.13;;;6.05;;
79399;SDS011;68856;45.586;10.264;2023-05-29T03:27:34;7.05;;;6.20;;
79399;SDS011;68856;45.586;10.264;2023-05-29T03:30:00;8.20;;;6.00;;
79399;SDS011;68856;45.586;10.264;2023-05-29T03:32:26;9.60;;;6.32;;
79399;SDS011;68856;45.586;10.264;2023-05-29T03:34:52;8.40;;;6.10;;
79399;SDS011;68856;45.586;10.264;2023-05-29T03:37:18;7.53;;;5.72;;
79399;SDS011;68856;45.586;10.264;2023-05-29T03:39:44;8.80;;;5.97;;
79399;SDS011;68856;45.586;10.264;2023-05-29T03:42:10;9.38;;;6.18;;
79399;SDS011;68856;45.586;10.264;2023-05-29T03:44:36;8.82;;;6.55;;
79399;SDS011;68856;45.586;10.264;2023-05-29T03:47:02;7.05;;;6.35;;
79399;SDS011;68856;45.586;10.264;2023-05-29T03:49:29;7.55;;;5.85;;
79399;SDS011;68856;45.586;10.264;2023-05-29T03:51:55;9.20;;;5.72;;
79399;SDS011;68856;45.586;10.264;2023-05-29T03:54:21;8.43;;;6.10;;
79399;SDS011;68856;45.586;10.264;2023-05-29T03:56:47;8.20;;;5.97;;
79399;SDS011;68856;45.586;10.264;2023-05-29T03:59:13;8.35;;;5.80;;
79399;SDS011;68856;45.586;10.264;2023-05-29T04:01:39;7.50;;;5.82;;
79399;SDS011;68856;45.586;10.264;2023-05-29T04:04:05;8.05;;;5.82;;
79399;SDS011;68856;45.586;10.264;2023-05-29T04:06:31;8.07;;;6.32;;
79399;SDS011;68856;45.586;10.264;2023-05-29T04:08:57;7.20;;;6.20;;
79399;SDS011;68856;45.586;10.264;2023-05-29T04:11:23;10.35;;;6.18;;
79399;SDS011;68856;45.586;10.264;2023-05-29T04:13:49;8.90;;;6.65;;
79399;SDS011;68856;45.586;10.264;2023-05-29T04:16:16;10.82;;;7.45;;
79399;SDS011;68856;45.586;10.264;2023-05-29T04:18:42;7.65;;;5.93;;
79399;SDS011;68856;45.586;10.264;2023-05-29T04:21:08;8.80;;;6.60;;
79399;SDS011;68856;45.586;10.264;2023-05-29T04:23:34;6.72;;;5.05;;
79399;SDS011;68856;45.586;10.264;2023-05-29T04:26:00;6.00;;;5.00;;
79399;SDS011;68856;45.586;10.264;2023-05-29T04:28:27;5.95;;;4.78;;
79399;SDS011;68856;45.586;10.264;2023-05-29T04:30:53;8.82;;;5.15;;
79399;SDS011;68856;45.586;10.264;2023-05-29T04:33:20;6.78;;;4.90;;
79399;SDS011;68856;45.586;10.264;2023-05-29T04:35:48;10.65;;;5.72;;
79399;SDS011;68856;45.586;10.264;2023-05-29T04:38:14;6.70;;;4.63;;
79399;SDS011;68856;45.586;10.264;2023-05-29T04:40:41;6.78;;;5.30;;
79399;SDS011;68856;45.586;10.264;2023-05-29T04:43:08;6.80;;;5.22;;
79399;SDS011;68856;45.586;10.264;2023-05-29T04:45:34;5.32;;;4.82;;
79399;SDS011;68856;45.586;10.264;2023-05-29T04:48:02;5.45;;;4.20;;
79399;SDS011;68856;45.586;10.264;2023-05-29T04:50:28;6.55;;;5.03;;
79399;SDS011;68856;45.586;10.264;2023-05-29T04:52:56;7.40;;;4.70;;
79399;SDS011;68856;45.586;10.264;2023-05-29T04:55:22;8.63;;;5.05;;
79399;SDS011;68856;45.586;10.264;2023-05-29T04:57:48;6.30;;;4.60;;
79399;SDS011;68856;45.586;10.264;2023-05-29T05:00:15;4.57;;;4.00;;
79399;SDS011;68856;45.586;10.264;2023-05-29T05:02:43;7.03;;;4.93;;
79399;SDS011;68856;45.586;10.264;2023-05-29T05:05:09;7.15;;;5.25;;
79399;SDS011;68856;45.586;10.264;2023-05-29T05:07:36;5.13;;;4.43;;
79399;SDS011;68856;45.586;10.264;2023-05-29T05:10:02;7.43;;;4.90;;
79399;SDS011;68856;45.586;10.264;2023-05-29T05:12:29;5.20;;;4.10;;
79399;SDS011;68856;45.586;10.264;2023-05-29T05:14:55;5.53;;;4.47;;
79399;SDS011;68856;45.586;10.264;2023-05-29T05:17:21;6.63;;;4.32;;
79399;SDS011;68856;45.586;10.264;2023-05-29T05:19:47;8.15;;;4.70;;
79399;SDS011;68856;45.586;10.264;2023-05-29T05:22:18;7.30;;;4.35;;
79399;SDS011;68856;45.586;10.264;2023-05-29T05:24:44;7.00;;;4.82;;
79399;SDS011;68856;45.586;10.264;2023-05-29T05:27:11;5.60;;;4.38;;
79399;SDS011;68856;45.586;10.264;2023-05-29T05:29:37;7.00;;;4.68;;
79399;SDS011;68856;45.586;10.264;2023-05-29T05:32:03;5.88;;;4.80;;
79399;SDS011;68856;45.586;10.264;2023-05-29T05:34:29;5.90;;;3.92;;
79399;SDS011;68856;45.586;10.264;2023-05-29T05:36:55;5.32;;;4.15;;
79399;SDS011;68856;45.586;10.264;2023-05-29T05:39:21;5.93;;;4.63;;
79399;SDS011;68856;45.586;10.264;2023-05-29T05:41:47;5.60;;;4.70;;
79399;SDS011;68856;45.586;10.264;2023-05-29T05:44:13;5.97;;;3.97;;
79399;SDS011;68856;45.586;10.264;2023-05-29T05:46:40;5.35;;;4.00;;
79399;SDS011;68856;45.586;10.264;2023-05-29T05:49:06;5.32;;;4.13;;
79399;SDS011;68856;45.586;10.264;2023-05-29T05:51:32;5.75;;;4.47;;
79399;SDS011;68856;45.586;10.264;2023-05-29T05:53:58;7.13;;;4.25;;
79399;SDS011;68856;45.586;10.264;2023-05-29T05:56:24;5.93;;;4.05;;
79399;SDS011;68856;45.586;10.264;2023-05-29T05:58:51;6.53;;;4.53;;
79399;SDS011;68856;45.586;10.264;2023-05-29T06:01:17;11.35;;;6.30;;
79399;SDS011;68856;45.586;10.264;2023-05-29T06:03:44;7.85;;;5.68;;
79399;SDS011;68856;45.586;10.264;2023-05-29T06:06:10;9.07;;;5.70;;
79399;SDS011;68856;45.586;10.264;2023-05-29T06:08:36;6.57;;;5.70;;
79399;SDS011;68856;45.586;10.264;2023-05-29T06:11:03;7.70;;;5.10;;
79399;SDS011;68856;45.586;10.264;2023-05-29T06:13:29;7.15;;;5.30;;
79399;SDS011;68856;45.586;10.264;2023-05-29T06:15:55;9.73;;;5.43;;
79399;SDS011;68856;45.586;10.264;2023-05-29T06:18:21;9.70;;;5.70;;
79399;SDS011;68856;45.586;10.264;2023-05-29T06:20:48;8.98;;;5.43;;
79399;SDS011;68856;45.586;10.264;2023-05-29T06:23:15;6.15;;;4.78;;
79399;SDS011;68856;45.586;10.264;2023-05-29T06:25:41;6.05;;;4.90;;
79399;SDS011;68856;45.586;10.264;2023-05-29T06:28:07;6.32;;;5.00;;
79399;SDS011;68856;45.586;10.264;2023-05-29T06:30:33;7.72;;;5.25;;
79399;SDS011;68856;45.586;10.264;2023-05-29T06:32:59;8.43;;;5.55;;
79399;SDS011;68856;45.586;10.264;2023-05-29T06:35:25;8.20;;;5.40;;
79399;SDS011;68856;45.586;10.264;2023-05-29T06:37:51;7.53;;;5.00;;
79399;SDS011;68856;45.586;10.264;2023-05-29T06:40:17;8.07;;;4.57;;
79399;SDS011;68856;45.586;10.264;2023-05-29T06:42:43;6.85;;;5.35;;
79399;SDS011;68856;45.586;10.264;2023-05-29T06:45:10;6.78;;;5.00;;
79399;SDS011;68856;45.586;10.264;2023-05-29T06:47:40;7.57;;;5.22;;
79399;SDS011;68856;45.586;10.264;2023-05-29T06:50:06;7.70;;;4.95;;
79399;SDS011;68856;45.586;10.264;2023-05-29T06:52:33;8.00;;;5.30;;
79399;SDS011;68856;45.586;10.264;2023-05-29T06:54:59;5.82;;;4.85;;
79399;SDS011;68856;45.586;10.264;2023-05-29T06:57:26;7.78;;;5.45;;
79399;SDS011;68856;45.586;10.264;2023-05-29T06:59:52;6.50;;;4.80;;
79399;SDS011;68856;45.586;10.264;2023-05-29T07:02:18;5.43;;;4.75;;
79399;SDS011;68856;45.586;10.264;2023-05-29T07:04:44;6.93;;;5.20;;
79399;SDS011;68856;45.586;10.264;2023-05-29T07:07:10;9.57;;;5.43;;
79399;SDS011;68856;45.586;10.264;2023-05-29T07:09:37;5.57;;;4.70;;
79399;SDS011;68856;45.586;10.264;2023-05-29T07:12:04;5.38;;;4.85;;
79399;SDS011;68856;45.586;10.264;2023-05-29T07:14:31;6.88;;;5.03;;
79399;SDS011;68856;45.586;10.264;2023-05-29T07:16:57;6.05;;;5.22;;
79399;SDS011;68856;45.586;10.264;2023-05-29T07:19:23;6.63;;;5.18;;
79399;SDS011;68856;45.586;10.264;2023-05-29T07:21:49;5.90;;;4.82;;
79399;SDS011;68856;45.586;10.264;2023-05-29T07:24:15;7.45;;;5.15;;
79399;SDS011;68856;45.586;10.264;2023-05-29T07:26:41;6.80;;;4.97;;
79399;SDS011;68856;45.586;10.264;2023-05-29T07:29:07;8.13;;;4.93;;
79399;SDS011;68856;45.586;10.264;2023-05-29T07:31:33;7.03;;;4.65;;
79399;SDS011;68856;45.586;10.264;2023-05-29T07:33:59;5.57;;;4.40;;
79399;SDS011;68856;45.586;10.264;2023-05-29T07:36:29;5.68;;;4.57;;
79399;SDS011;68856;45.586;10.264;2023-05-29T07:38:56;7.43;;;4.80;;
79399;SDS011;68856;45.586;10.264;2023-05-29T07:41:23;6.85;;;5.15;;
79399;SDS011;68856;45.586;10.264;2023-05-29T07:43:51;6.18;;;4.75;;
79399;SDS011;68856;45.586;10.264;2023-05-29T07:46:20;6.30;;;4.40;;
79399;SDS011;68856;45.586;10.264;2023-05-29T07:48:46;7.50;;;4.65;;
79399;SDS011;68856;45.586;10.264;2023-05-29T07:51:12;5.60;;;4.72;;
79399;SDS011;68856;45.586;10.264;2023-05-29T07:53:39;6.30;;;4.72;;
79399;SDS011;68856;45.586;10.264;2023-05-29T07:56:05;7.15;;;5.05;;
79399;SDS011;68856;45.586;10.264;2023-05-29T07:58:31;5.97;;;4.20;;
79399;SDS011;68856;45.586;10.264;2023-05-29T08:00:58;6.40;;;4.75;;
79399;SDS011;68856;45.586;10.264;2023-05-29T08:03:24;5.72;;;4.80;;
79399;SDS011;68856;45.586;10.264;2023-05-29T08:05:51;6.50;;;5.05;;
79399;SDS011;68856;45.586;10.264;2023-05-29T08:08:17;6.22;;;5.03;;
79399;SDS011;68856;45.586;10.264;2023-05-29T08:10:43;6.50;;;4.80;;
79399;SDS011;68856;45.586;10.264;2023-05-29T08:13:10;6.53;;;5.40;;
79399;SDS011;68856;45.586;10.264;2023-05-29T08:15:36;10.15;;;5.55;;
79399;SDS011;68856;45.586;10.264;2023-05-29T08:18:02;7.65;;;5.65;;
79399;SDS011;68856;45.586;10.264;2023-05-29T08:20:28;8.45;;;6.65;;
79399;SDS011;68856;45.586;10.264;2023-05-29T08:22:54;7.10;;;6.03;;
79399;SDS011;68856;45.586;10.264;2023-05-29T08:25:20;7.50;;;6.15;;
79399;SDS011;68856;45.586;10.264;2023-05-29T08:27:46;11.13;;;6.50;;
79399;SDS011;68856;45.586;10.264;2023-05-29T08:30:13;8.20;;;6.50;;
79399;SDS011;68856;45.586;10.264;2023-05-29T08:32:39;9.85;;;6.68;;
79399;SDS011;68856;45.586;10.264;2023-05-29T08:35:05;11.77;;;7.13;;
79399;SDS011;68856;45.586;10.264;2023-05-29T08:37:31;10.50;;;6.95;;
79399;SDS011;68856;45.586;10.264;2023-05-29T08:39:57;7.55;;;6.45;;
79399;SDS011;68856;45.586;10.264;2023-05-29T08:42:29;10.10;;;6.93;;
79399;SDS011;68856;45.586;10.264;2023-05-29T08:44:58;11.18;;;6.85;;
79399;SDS011;68856;45.586;10.264;2023-05-29T08:47:27;8.20;;;6.55;;
79399;SDS011;68856;45.586;10.264;2023-05-29T08:49:55;11.80;;;6.30;;
79399;SDS011;68856;45.586;10.264;2023-05-29T08:52:23;8.63;;;6.60;;
79399;SDS011;68856;45.586;10.264;2023-05-29T08:54:50;7.85;;;5.90;;
79399;SDS011;68856;45.586;10.264;2023-05-29T08:57:17;9.70;;;5.90;;
79399;SDS011;68856;45.586;10.264;2023-05-29T08:59:43;8.88;;;6.43;;
79399;SDS011;68856;45.586;10.264;2023-05-29T09:02:10;8.07;;;6.35;;
79399;SDS011;68856;45.586;10.264;2023-05-29T09:04:37;10.88;;;6.63;;
79399;SDS011;68856;45.586;10.264;2023-05-29T09:07:04;14.02;;;7.05;;
79399;SDS011;68856;45.586;10.264;2023-05-29T09:09:34;8.05;;;6.22;;
79399;SDS011;68856;45.586;10.264;2023-05-29T09:12:00;8.55;;;6.45;;
79399;SDS011;68856;45.586;10.264;2023-05-29T09:14:34;8.48;;;6.57;;
79399;SDS011;68856;45.586;10.264;2023-05-29T09:17:01;11.27;;;7.35;;
79399;SDS011;68856;45.586;10.264;2023-05-29T09:19:27;8.45;;;5.85;;
79399;SDS011;68856;45.586;10.264;2023-05-29T09:22:00;10.57;;;7.07;;
79399;SDS011;68856;45.586;10.264;2023-05-29T09:24:27;9.68;;;5.93;;
79399;SDS011;68856;45.586;10.264;2023-05-29T09:26:53;7.82;;;5.75;;
79399;SDS011;68856;45.586;10.264;2023-05-29T09:29:20;7.88;;;6.30;;
79399;SDS011;68856;45.586;10.264;2023-05-29T09:31:47;7.43;;;5.35;;
79399;SDS011;68856;45.586;10.264;2023-05-29T09:34:13;9.43;;;6.25;;
79399;SDS011;68856;45.586;10.264;2023-05-29T09:36:40;8.43;;;6.93;;
79399;SDS011;68856;45.586;10.264;2023-05-29T09:39:06;12.65;;;6.43;;
79399;SDS011;68856;45.586;10.264;2023-05-29T09:41:43;9.23;;;6.05;;
79399;SDS011;68856;45.586;10.264;2023-05-29T09:44:12;9.75;;;6.30;;
79399;SDS011;68856;45.586;10.264;2023-05-29T09:46:39;9.43;;;6.50;;
79399;SDS011;68856;45.586;10.264;2023-05-29T09:49:12;10.48;;;5.90;;
79399;SDS011;68856;45.586;10.264;2023-05-29T09:51:39;10.68;;;6.43;;
79399;SDS011;68856;45.586;10.264;2023-05-29T09:54:13;7.30;;;6.00;;
79399;SDS011;68856;45.586;10.264;2023-05-29T09:56:40;9.95;;;6.45;;
79399;SDS011;68856;45.586;10.264;2023-05-29T09:59:09;7.00;;;5.80;;
79399;SDS011;68856;45.586;10.264;2023-05-29T10:01:36;8.48;;;6.50;;
79399;SDS011;68856;45.586;10.264;2023-05-29T10:04:04;8.98;;;6.13;;
79399;SDS011;68856;45.586;10.264;2023-05-29T10:06:30;7.55;;;5.97;;
79399;SDS011;68856;45.586;10.264;2023-05-29T10:08:58;9.18;;;6.10;;
79399;SDS011;68856;45.586;10.264;2023-05-29T10:11:25;12.50;;;6.20;;
79399;SDS011;68856;45.586;10.264;2023-05-29T10:13:52;7.68;;;5.40;;
79399;SDS011;68856;45.586;10.264;2023-05-29T10:16:20;9.38;;;7.63;;
79399;SDS011;68856;45.586;10.264;2023-05-29T10:18:51;13.30;;;6.47;;
79399;SDS011;68856;45.586;10.264;2023-05-29T10:21:20;11.15;;;7.32;;
79399;SDS011;68856;45.586;10.264;2023-05-29T10:23:50;12.93;;;7.97;;
79399;SDS011;68856;45.586;10.264;2023-05-29T10:26:20;12.10;;;9.00;;
79399;SDS011;68856;45.586;10.264;2023-05-29T10:31:30;10.23;;;8.05;;
79399;SDS011;68856;45.586;10.264;2023-05-29T10:36:23;12.80;;;7.55;;
79399;SDS011;68856;45.586;10.264;2023-05-29T10:38:51;11.73;;;7.75;;
79399;SDS011;68856;45.586;10.264;2023-05-29T10:43:56;11.75;;;8.18;;
79399;SDS011;68856;45.586;10.264;2023-05-29T10:46:44;13.57;;;8.40;;
79399;SDS011;68856;45.586;10.264;2023-05-29T10:49:16;12.15;;;8.38;;
79399;SDS011;68856;45.586;10.264;2023-05-29T10:51:42;12.60;;;8.52;;
79399;SDS011;68856;45.586;10.264;2023-05-29T10:54:08;10.82;;;8.02;;
79399;SDS011;68856;45.586;10.264;2023-05-29T10:56:34;13.30;;;8.20;;
79399;SDS011;68856;45.586;10.264;2023-05-29T10:59:01;11.05;;;8.50;;
79399;SDS011;68856;45.586;10.264;2023-05-29T11:01:27;14.52;;;8.23;;
79399;SDS011;68856;45.586;10.264;2023-05-29T11:06:40;15.25;;;9.25;;
79399;SDS011;68856;45.586;10.264;2023-05-29T11:09:06;12.90;;;8.73;;
79399;SDS011;68856;45.586;10.264;2023-05-29T11:14:52;17.55;;;10.13;;
79399;SDS011;68856;45.586;10.264;2023-05-29T11:20:00;11.32;;;10.00;;
79399;SDS011;68856;45.586;10.264;2023-05-29T11:22:29;13.07;;;9.80;;
79399;SDS011;68856;45.586;10.264;2023-05-29T11:24:59;13.10;;;10.13;;
79399;SDS011;68856;45.586;10.264;2023-05-29T11:27:25;15.50;;;9.77;;
79399;SDS011;68856;45.586;10.264;2023-05-29T11:29:51;15.45;;;11.20;;
79399;SDS011;68856;45.586;10.264;2023-05-29T11:32:20;15.00;;;10.57;;
79399;SDS011;68856;45.586;10.264;2023-05-29T11:34:47;17.75;;;11.60;;
79399;SDS011;68856;45.586;10.264;2023-05-29T11:37:13;17.40;;;12.30;;
79399;SDS011;68856;45.586;10.264;2023-05-29T11:39:40;15.13;;;10.68;;
79399;SDS011;68856;45.586;10.264;2023-05-29T11:42:07;14.85;;;10.93;;
79399;SDS011;68856;45.586;10.264;2023-05-29T11:44:33;17.90;;;11.02;;
79399;SDS011;68856;45.586;10.264;2023-05-29T11:47:03;17.15;;;12.43;;
79399;SDS011;68856;45.586;10.264;2023-05-29T11:49:30;13.85;;;10.40;;
79399;SDS011;68856;45.586;10.264;2023-05-29T11:52:10;18.42;;;12.88;;
79399;SDS011;68856;45.586;10.264;2023-05-29T11:54:36;12.88;;;10.10;;
79399;SDS011;68856;45.586;10.264;2023-05-29T11:57:03;16.77;;;11.13;;
79399;SDS011;68856;45.586;10.264;2023-05-29T11:59:32;16.95;;;12.70;;
79399;SDS011;68856;45.586;10.264;2023-05-29T12:02:02;15.68;;;11.82;;
79399;SDS011;68856;45.586;10.264;2023-05-29T12:04:28;14.00;;;10.02;;
79399;SDS011;68856;45.586;10.264;2023-05-29T12:06:54;14.90;;;11.32;;
79399;SDS011;68856;45.586;10.264;2023-05-29T12:09:27;16.90;;;12.90;;
79399;SDS011;68856;45.586;10.264;2023-05-29T12:12:03;15.07;;;12.00;;
79399;SDS011;68856;45.586;10.264;2023-05-29T12:14:29;13.40;;;11.38;;
79399;SDS011;68856;45.586;10.264;2023-05-29T12:16:55;13.07;;;10.48;;
79399;SDS011;68856;45.586;10.264;2023-05-29T12:19:21;13.82;;;11.13;;
79399;SDS011;68856;45.586;10.264;2023-05-29T12:21:48;18.67;;;13.63;;
79399;SDS011;68856;45.586;10.264;2023-05-29T12:24:14;19.35;;;12.40;;
79399;SDS011;68856;45.586;10.264;2023-05-29T12:26:41;17.25;;;12.38;;
79399;SDS011;68856;45.586;10.264;2023-05-29T12:29:08;16.60;;;12.63;;
79399;SDS011;68856;45.586;10.264;2023-05-29T12:31:34;15.80;;;12.60;;
79399;SDS011;68856;45.586;10.264;2023-05-29T12:34:02;15.70;;;12.18;;
79399;SDS011;68856;45.586;10.264;2023-05-29T12:36:28;13.63;;;11.13;;
79399;SDS011;68856;45.586;10.264;2023-05-29T12:38:55;14.18;;;11.50;;
79399;SDS011;68856;45.586;10.264;2023-05-29T12:43:53;17.90;;;12.50;;
79399;SDS011;68856;45.586;10.264;2023-05-29T12:46:20;17.42;;;12.00;;
79399;SDS011;68856;45.586;10.264;2023-05-29T12:48:46;17.77;;;11.57;;
79399;SDS011;68856;45.586;10.264;2023-05-29T12:51:14;16.13;;;11.63;;
79399;SDS011;68856;45.586;10.264;2023-05-29T12:53:40;16.92;;;12.75;;
79399;SDS011;68856;45.586;10.264;2023-05-29T12:56:06;16.33;;;11.77;;
79399;SDS011;68856;45.586;10.264;2023-05-29T12:58:32;20.00;;;10.82;;
79399;SDS011;68856;45.586;10.264;2023-05-29T13:00:58;13.77;;;11.73;;
79399;SDS011;68856;45.586;10.264;2023-05-29T13:03:24;15.65;;;11.07;;
79399;SDS011;68856;45.586;10.264;2023-05-29T13:05:51;14.23;;;10.77;;
79399;SDS011;68856;45.586;10.264;2023-05-29T13:08:18;12.80;;;10.10;;
79399;SDS011;68856;45.586;10.264;2023-05-29T13:10:45;11.57;;;9.02;;
79399;SDS011;68856;45.586;10.264;2023-05-29T13:13:11;22.20;;;12.15;;
79399;SDS011;68856;45.586;10.264;2023-05-29T13:15:38;16.92;;;11.23;;
79399;SDS011;68856;45.586;10.264;2023-05-29T13:18:05;12.68;;;8.95;;
79399;SDS011;68856;45.586;10.264;2023-05-29T13:20:31;14.27;;;11.80;;
79399;SDS011;68856;45.586;10.264;2023-05-29T13:22:57;13.55;;;10.20;;
79399;SDS011;68856;45.586;10.264;2023-05-29T13:25:23;15.85;;;11.38;;
79399;SDS011;68856;45.586;10.264;2023-05-29T13:27:51;16.52;;;10.63;;
79399;SDS011;68856;45.586;10.264;2023-05-29T13:30:17;13.95;;;11.40;;
79399;SDS011;68856;45.586;10.264;2023-05-29T13:32:44;14.07;;;11.73;;
79399;SDS011;68856;45.586;10.264;2023-05-29T13:35:10;18.63;;;10.98;;
79399;SDS011;68856;45.586;10.264;2023-05-29T13:37:36;15.35;;;11.77;;
79399;SDS011;68856;45.586;10.264;2023-05-29T13:40:03;14.38;;;10.38;;
79399;SDS011;68856;45.586;10.264;2023-05-29T13:42:29;15.95;;;10.52;;
79399;SDS011;68856;45.586;10.264;2023-05-29T13:44:56;16.63;;;9.93;;
79399;SDS011;68856;45.586;10.264;2023-05-29T13:47:22;12.02;;;9.32;;
79399;SDS011;68856;45.586;10.264;2023-05-29T13:49:48;9.88;;;8.60;;
79399;SDS011;68856;45.586;10.264;2023-05-29T13:52:14;11.18;;;8.93;;
79399;SDS011;68856;45.586;10.264;2023-05-29T13:54:41;10.27;;;8.43;;
79399;SDS011;68856;45.586;10.264;2023-05-29T13:57:07;10.23;;;8.65;;
79399;SDS011;68856;45.586;10.264;2023-05-29T13:59:34;10.57;;;8.88;;
79399;SDS011;68856;45.586;10.264;2023-05-29T14:02:00;14.45;;;10.20;;
79399;SDS011;68856;45.586;10.264;2023-05-29T14:04:26;12.38;;;8.57;;
79399;SDS011;68856;45.586;10.264;2023-05-29T14:06:52;11.73;;;9.20;;
79399;SDS011;68856;45.586;10.264;2023-05-29T14:09:19;12.00;;;8.93;;
79399;SDS011;68856;45.586;10.264;2023-05-29T14:11:52;12.45;;;9.45;;
79399;SDS011;68856;45.586;10.264;2023-05-29T14:14:18;11.48;;;9.30;;
79399;SDS011;68856;45.586;10.264;2023-05-29T14:16:44;12.27;;;9.88;;
79399;SDS011;68856;45.586;10.264;2023-05-29T14:19:10;14.25;;;10.60;;
79399;SDS011;68856;45.586;10.264;2023-05-29T14:21:37;12.43;;;9.23;;
79399;SDS011;68856;45.586;10.264;2023-05-29T14:24:03;14.13;;;10.55;;
79399;SDS011;68856;45.586;10.264;2023-05-29T14:26:29;12.30;;;9.40;;
79399;SDS011;68856;45.586;10.264;2023-05-29T14:28:55;12.48;;;9.45;;
79399;SDS011;68856;45.586;10.264;2023-05-29T14:31:21;11.25;;;8.55;;
79399;SDS011;68856;45.586;10.264;2023-05-29T14:33:47;12.13;;;9.15;;
79399;SDS011;68856;45.586;10.264;2023-05-29T14:36:13;11.77;;;9.48;;
79399;SDS011;68856;45.586;10.264;2023-05-29T14:38:39;10.90;;;8.75;;
79399;SDS011;68856;45.586;10.264;2023-05-29T14:41:06;12.50;;;10.18;;
79399;SDS011;68856;45.586;10.264;2023-05-29T14:43:32;12.77;;;9.30;;
79399;SDS011;68856;45.586;10.264;2023-05-29T14:45:58;13.00;;;8.73;;
79399;SDS011;68856;45.586;10.264;2023-05-29T14:48:24;12.05;;;8.07;;
79399;SDS011;68856;45.586;10.264;2023-05-29T14:50:50;10.88;;;7.35;;